createdAt,value
2023-05-19T00:00:48.569Z,51.20
2023-05-19T00:03:16.940Z,50.90
2023-05-19T00:05:43.483Z,50.70
2023-05-19T00:08:09.994Z,50.85
2023-05-19T00:10:36.438Z,51.28
2023-05-19T00:13:02.903Z,50.89
2023-05-19T00:15:29.347Z,51.28
2023-05-19T00:17:55.938Z,51.50
2023-05-19T00:20:22.385Z,51.24
2023-05-19T00:22:48.879Z,50.99
2023-05-19T00:25:15.336Z,51.08
2023-05-19T00:27:41.862Z,51.39
2023-05-19T00:30:08.298Z,51.38
2023-05-19T00:32:34.842Z,51.74
2023-05-19T00:35:01.339Z,51.84
2023-05-19T00:37:27.765Z,51.45
2023-05-19T00:39:54.188Z,51.19
2023-05-19T00:42:20.667Z,51.36
2023-05-19T00:44:47.088Z,51.44
2023-05-19T00:47:13.513Z,51.45
2023-05-19T00:49:39.912Z,52.22
2023-05-19T00:52:06.379Z,53.02
2023-05-19T00:54:32.816Z,52.88
2023-05-19T00:56:59.259Z,52.60
2023-05-19T00:59:25.654Z,52.12
2023-05-19T01:01:52.180Z,52.51
2023-05-19T01:04:18.645Z,52.55
2023-05-19T01:06:45.071Z,52.66
2023-05-19T01:09:11.598Z,52.27
2023-05-19T01:11:37.987Z,51.99
2023-05-19T01:14:04.425Z,52.49
2023-05-19T01:16:30.975Z,52.04
2023-05-19T01:18:57.481Z,52.40
2023-05-19T01:21:24.015Z,52.38
2023-05-19T01:23:50.453Z,52.41
2023-05-19T01:26:16.901Z,52.38
2023-05-19T01:28:43.385Z,52.78
2023-05-19T01:31:09.895Z,52.57
2023-05-19T01:33:36.341Z,52.56
2023-05-19T01:36:02.778Z,52.51
2023-05-19T01:38:29.201Z,52.46
2023-05-19T01:40:55.655Z,52.66
2023-05-19T01:43:22.059Z,52.63
2023-05-19T01:45:48.526Z,52.65
2023-05-19T01:48:15.014Z,51.68
2023-05-19T01:50:41.580Z,52.13
2023-05-19T01:53:08.006Z,51.88
2023-05-19T01:55:34.413Z,51.75
2023-05-19T01:58:00.851Z,52.31
2023-05-19T02:00:27.299Z,52.19
2023-05-19T02:02:53.788Z,52.17
2023-05-19T02:05:20.191Z,52.27
2023-05-19T02:07:46.671Z,52.77
2023-05-19T02:10:13.184Z,52.07
2023-05-19T02:12:39.586Z,51.98
2023-05-19T02:15:06.006Z,52.66
2023-05-19T02:17:32.456Z,52.11
2023-05-19T02:19:58.856Z,52.64
2023-05-19T02:22:25.266Z,52.29
2023-05-19T02:24:51.784Z,52.19
2023-05-19T02:27:18.375Z,52.50
2023-05-19T02:29:44.816Z,52.46
2023-05-19T02:32:11.352Z,52.22
2023-05-19T02:34:37.882Z,52.52
2023-05-19T02:37:04.445Z,52.62
2023-05-19T02:39:30.867Z,52.61
2023-05-19T02:41:57.390Z,52.07
2023-05-19T02:44:23.816Z,52.15
2023-05-19T02:46:50.506Z,52.43
2023-05-19T02:49:17.041Z,52.48
2023-05-19T02:51:43.509Z,52.24
2023-05-19T02:54:09.934Z,52.47
2023-05-19T02:56:36.399Z,52.53
2023-05-19T02:59:02.874Z,52.85
2023-05-19T03:01:29.354Z,53.03
2023-05-19T03:03:55.943Z,52.11
2023-05-19T03:06:22.437Z,52.72
2023-05-19T03:08:48.882Z,52.43
2023-05-19T03:11:15.313Z,52.67
2023-05-19T03:13:41.724Z,52.83
2023-05-19T03:16:08.398Z,52.38
2023-05-19T03:18:34.936Z,52.60
2023-05-19T03:21:01.387Z,52.52
2023-05-19T03:23:27.838Z,52.60
2023-05-19T03:25:54.262Z,52.39
2023-05-19T03:28:20.693Z,52.56
2023-05-19T03:30:47.132Z,52.98
2023-05-19T03:33:13.636Z,52.38
2023-05-19T03:35:40.154Z,52.43
2023-05-19T03:38:06.593Z,52.61
2023-05-19T03:40:33.329Z,52.71
2023-05-19T03:43:00.113Z,52.86
2023-05-19T03:45:26.566Z,52.61
2023-05-19T03:47:53.058Z,52.40
2023-05-19T03:50:19.521Z,52.58
2023-05-19T03:52:45.932Z,52.60
2023-05-19T03:55:12.356Z,52.99
2023-05-19T03:57:38.784Z,52.86
2023-05-19T04:00:05.187Z,52.63
2023-05-19T04:02:31.727Z,53.22
2023-05-19T04:04:58.247Z,53.11
2023-05-19T04:07:24.671Z,52.86
2023-05-19T04:09:51.114Z,53.62
2023-05-19T04:12:17.538Z,53.38
2023-05-19T04:14:44.129Z,53.26
2023-05-19T04:17:10.560Z,53.16
2023-05-19T04:19:36.994Z,53.33
2023-05-19T04:22:03.467Z,53.20
2023-05-19T04:24:29.897Z,52.96
2023-05-19T04:26:56.297Z,53.16
2023-05-19T04:29:22.715Z,53.54
2023-05-19T04:31:49.162Z,53.34
2023-05-19T04:34:15.563Z,52.77
2023-05-19T04:36:41.956Z,52.80
2023-05-19T04:39:08.471Z,52.84
2023-05-19T04:41:34.925Z,52.87
2023-05-19T04:44:01.367Z,52.50
2023-05-19T04:46:27.869Z,52.58
2023-05-19T04:48:54.329Z,52.95
2023-05-19T04:51:20.803Z,52.51
2023-05-19T04:53:47.289Z,53.06
2023-05-19T04:56:13.782Z,52.81
2023-05-19T04:58:41.990Z,52.38
2023-05-19T05:01:08.503Z,52.12
2023-05-19T05:03:35.106Z,52.11
2023-05-19T05:06:01.581Z,52.04
2023-05-19T05:08:27.989Z,52.08
2023-05-19T05:10:54.409Z,51.82
2023-05-19T05:13:20.810Z,51.87
2023-05-19T05:15:47.658Z,51.70
2023-05-19T05:18:14.061Z,51.62
2023-05-19T05:20:40.505Z,51.81
2023-05-19T05:23:06.912Z,52.02
2023-05-19T05:25:33.797Z,52.13
2023-05-19T05:28:00.449Z,52.04
2023-05-19T05:30:26.897Z,51.52
2023-05-19T05:32:53.636Z,51.38
2023-05-19T05:35:20.167Z,51.76
2023-05-19T05:37:46.609Z,51.00
2023-05-19T05:40:13.047Z,50.69
2023-05-19T05:42:39.475Z,50.52
2023-05-19T05:45:05.880Z,50.57
2023-05-19T05:47:32.399Z,50.31
2023-05-19T05:49:58.918Z,50.02
2023-05-19T05:52:25.380Z,50.08
2023-05-19T05:54:51.782Z,49.50
2023-05-19T05:57:18.233Z,49.44
2023-05-19T05:59:44.728Z,49.24
2023-05-19T06:02:11.293Z,49.83
2023-05-19T06:04:37.821Z,49.79
2023-05-19T06:07:04.280Z,49.55
2023-05-19T06:09:30.719Z,49.88
2023-05-19T06:11:57.197Z,49.66
2023-05-19T06:14:23.613Z,50.02
2023-05-19T06:16:50.019Z,49.27
2023-05-19T06:19:16.475Z,49.97
2023-05-19T06:21:43.249Z,49.31
2023-05-19T06:24:09.920Z,49.23
2023-05-19T06:26:36.476Z,49.49
2023-05-19T06:29:02.998Z,49.35
2023-05-19T06:31:29.518Z,48.98
2023-05-19T06:33:56.019Z,49.31
2023-05-19T06:36:22.524Z,48.97
2023-05-19T06:38:48.952Z,48.94
2023-05-19T06:41:15.399Z,48.65
2023-05-19T06:43:41.894Z,49.00
2023-05-19T06:46:08.314Z,48.78
2023-05-19T06:48:34.802Z,48.48
2023-05-19T06:51:01.275Z,48.10
2023-05-19T06:53:27.753Z,48.08
2023-05-19T06:55:59.705Z,47.76
2023-05-19T06:58:26.544Z,47.69
2023-05-19T07:00:52.990Z,47.18
2023-05-19T07:03:19.496Z,47.50
2023-05-19T07:05:46.185Z,47.14
2023-05-19T07:08:12.673Z,47.68
2023-05-19T07:10:39.121Z,47.36
2023-05-19T07:13:05.578Z,46.89
2023-05-19T07:15:31.998Z,47.08
2023-05-19T07:17:58.586Z,47.14
2023-05-19T07:20:25.036Z,47.25
2023-05-19T07:22:51.508Z,47.01
2023-05-19T07:25:17.978Z,46.48
2023-05-19T07:27:44.465Z,47.03
2023-05-19T07:30:11.013Z,46.95
2023-05-19T07:32:37.678Z,46.75
2023-05-19T07:35:04.162Z,46.42
2023-05-19T07:37:30.625Z,46.84
2023-05-19T07:39:57.062Z,46.33
2023-05-19T07:42:23.526Z,45.71
2023-05-19T07:44:49.976Z,45.92
2023-05-19T07:47:16.449Z,45.19
2023-05-19T07:49:42.899Z,44.85
2023-05-19T07:52:09.330Z,45.21
2023-05-19T07:54:35.749Z,44.78
2023-05-19T07:57:02.194Z,44.72
2023-05-19T07:59:28.618Z,45.25
2023-05-19T08:01:55.046Z,44.39
2023-05-19T08:04:21.727Z,44.48
2023-05-19T08:06:48.194Z,44.70
2023-05-19T08:09:14.663Z,45.04
2023-05-19T08:11:41.088Z,43.88
2023-05-19T08:14:07.599Z,44.05
2023-05-19T08:16:34.152Z,44.14
2023-05-19T08:19:00.689Z,44.88
2023-05-19T08:21:27.136Z,45.14
2023-05-19T08:23:53.567Z,45.11
2023-05-19T08:26:20.039Z,45.64
2023-05-19T08:28:46.711Z,45.04
2023-05-19T08:31:13.265Z,45.12
2023-05-19T08:33:39.887Z,45.32
2023-05-19T08:36:06.339Z,45.45
2023-05-19T08:38:32.783Z,45.43
2023-05-19T08:40:59.243Z,44.92
2023-05-19T08:43:25.670Z,45.11
2023-05-19T08:45:52.106Z,45.07
2023-05-19T08:48:18.604Z,45.06
2023-05-19T08:50:45.034Z,45.37
2023-05-19T08:53:21.375Z,45.05
2023-05-19T08:55:58.167Z,44.47
2023-05-19T08:58:25.432Z,44.01
2023-05-19T09:00:53.146Z,43.66
2023-05-19T09:05:49.477Z,43.02
2023-05-19T09:08:15.925Z,43.33
2023-05-19T09:10:42.406Z,42.71
2023-05-19T09:13:08.915Z,43.05
2023-05-19T09:15:35.556Z,42.71
2023-05-19T09:18:02.192Z,42.98
2023-05-19T09:20:28.744Z,42.12
2023-05-19T09:22:55.196Z,42.34
2023-05-19T09:25:21.697Z,42.71
2023-05-19T09:27:48.171Z,43.24
2023-05-19T09:30:14.624Z,43.60
2023-05-19T09:32:41.118Z,43.14
2023-05-19T09:35:07.561Z,43.02
2023-05-19T09:37:34.005Z,42.76
2023-05-19T09:40:00.527Z,42.91
2023-05-19T09:42:27.022Z,42.34
2023-05-19T09:44:53.466Z,42.21
2023-05-19T09:47:20.029Z,42.84
2023-05-19T09:49:46.516Z,43.36
2023-05-19T09:52:12.952Z,43.62
2023-05-19T09:54:39.430Z,42.94
2023-05-19T09:57:07.694Z,44.17
2023-05-19T09:59:34.938Z,44.00
2023-05-19T10:02:01.429Z,43.82
2023-05-19T10:04:27.967Z,43.64
2023-05-19T10:06:54.706Z,43.90
2023-05-19T10:09:21.427Z,44.44
2023-05-19T10:11:47.841Z,43.85
2023-05-19T10:14:14.383Z,45.67
2023-05-19T10:16:40.788Z,44.22
2023-05-19T10:19:07.483Z,44.74
2023-05-19T10:21:34.022Z,43.99
2023-05-19T10:24:00.457Z,43.24
2023-05-19T10:26:26.885Z,42.64
2023-05-19T10:28:53.392Z,41.93
2023-05-19T10:31:19.799Z,42.36
2023-05-19T10:33:46.341Z,41.51
2023-05-19T10:36:12.769Z,41.22
2023-05-19T10:38:39.180Z,39.65
2023-05-19T10:41:05.630Z,39.44
2023-05-19T10:43:32.088Z,39.39
2023-05-19T10:45:58.665Z,39.23
2023-05-19T10:48:25.107Z,38.80
2023-05-19T10:50:51.543Z,38.37
2023-05-19T10:53:17.994Z,38.31
2023-05-19T10:55:44.757Z,37.64
2023-05-19T10:58:11.680Z,37.69
2023-05-19T11:00:38.243Z,37.00
2023-05-19T11:03:04.806Z,36.40
2023-05-19T11:05:31.718Z,36.97
2023-05-19T11:07:58.357Z,35.94
2023-05-19T11:10:24.783Z,36.06
2023-05-19T11:15:18.425Z,36.60
2023-05-19T11:17:44.951Z,36.14
2023-05-19T11:20:11.369Z,35.98
2023-05-19T11:22:37.799Z,36.16
2023-05-19T11:25:04.234Z,36.44
2023-05-19T11:27:30.690Z,36.86
2023-05-19T11:29:57.158Z,36.64
2023-05-19T11:32:23.648Z,36.70
2023-05-19T11:34:50.500Z,36.12
2023-05-19T11:37:16.945Z,36.36
2023-05-19T11:39:43.367Z,36.15
2023-05-19T11:42:09.823Z,36.94
2023-05-19T11:44:36.334Z,36.70
2023-05-19T11:47:02.974Z,37.03
2023-05-19T11:49:29.600Z,37.13
2023-05-19T11:51:56.020Z,36.75
2023-05-19T11:54:22.461Z,36.54
2023-05-19T11:56:48.916Z,36.55
2023-05-19T11:59:15.415Z,36.68
2023-05-19T12:01:41.949Z,36.23
2023-05-19T12:04:08.419Z,36.13
2023-05-19T12:06:34.853Z,35.84
2023-05-19T12:09:01.375Z,36.51
2023-05-19T12:11:27.817Z,36.75
2023-05-19T12:13:54.291Z,37.97
2023-05-19T12:16:20.771Z,36.81
2023-05-19T12:18:47.388Z,36.78
2023-05-19T12:21:13.878Z,37.23
2023-05-19T12:23:40.292Z,36.15
2023-05-19T12:26:06.715Z,36.54
2023-05-19T12:28:33.404Z,37.11
2023-05-19T12:30:59.839Z,37.43
2023-05-19T12:33:26.242Z,36.43
2023-05-19T12:35:52.666Z,36.25
2023-05-19T12:38:19.097Z,35.34
2023-05-19T12:40:45.587Z,35.17
2023-05-19T12:43:12.055Z,34.67
2023-05-19T12:45:38.795Z,35.43
2023-05-19T12:48:05.617Z,35.24
2023-05-19T12:50:32.189Z,35.14
2023-05-19T12:52:58.774Z,34.93
2023-05-19T12:55:25.239Z,35.38
2023-05-19T12:57:51.690Z,35.98
2023-05-19T13:00:18.172Z,36.16
2023-05-19T13:02:44.699Z,36.55
2023-05-19T13:05:11.176Z,36.53
2023-05-19T13:10:04.087Z,36.32
2023-05-19T13:12:30.604Z,36.39
2023-05-19T13:14:57.067Z,36.63
2023-05-19T13:17:23.504Z,36.34
2023-05-19T13:19:50.032Z,36.84
2023-05-19T13:22:16.525Z,37.96
2023-05-19T13:24:43.054Z,36.67
2023-05-19T13:27:09.545Z,35.92
2023-05-19T13:29:35.969Z,35.58
2023-05-19T13:32:02.541Z,35.81
2023-05-19T13:34:29.017Z,35.91
2023-05-19T13:36:55.573Z,35.40
2023-05-19T13:39:22.180Z,34.92
2023-05-19T13:41:48.683Z,34.98
2023-05-19T13:44:15.301Z,34.65
2023-05-19T13:46:45.520Z,34.51
2023-05-19T13:49:13.356Z,34.20
2023-05-19T13:51:39.790Z,34.46
2023-05-19T13:54:06.213Z,33.85
2023-05-19T13:56:32.838Z,34.07
2023-05-19T13:58:59.260Z,34.09
2023-05-19T14:01:25.792Z,35.11
2023-05-19T14:03:52.432Z,35.04
2023-05-19T14:06:19.148Z,35.07
2023-05-19T14:08:45.590Z,35.11
2023-05-19T14:11:12.145Z,35.34
2023-05-19T14:13:42.594Z,35.41
2023-05-19T14:16:09.841Z,35.45
2023-05-19T14:18:36.366Z,35.02
2023-05-19T14:21:02.913Z,34.47
2023-05-19T14:23:29.359Z,34.22
2023-05-19T14:25:55.804Z,33.61
2023-05-19T14:28:22.264Z,33.32
2023-05-19T14:30:48.915Z,32.80
2023-05-19T14:33:15.510Z,32.60
2023-05-19T14:35:41.972Z,32.59
2023-05-19T14:38:08.428Z,32.14
2023-05-19T14:40:35.348Z,32.86
2023-05-19T14:43:01.901Z,32.68
2023-05-19T14:45:28.367Z,33.08
2023-05-19T14:47:55.037Z,32.37
2023-05-19T14:50:21.512Z,32.30
2023-05-19T14:52:48.189Z,32.05
2023-05-19T14:55:14.670Z,32.05
2023-05-19T14:57:41.135Z,31.80
2023-05-19T15:00:07.582Z,31.88
2023-05-19T15:02:34.066Z,31.34
2023-05-19T15:05:00.520Z,32.22
2023-05-19T15:07:27.056Z,32.88
2023-05-19T15:09:53.474Z,33.36
2023-05-19T15:12:20.098Z,32.84
2023-05-19T15:14:46.791Z,32.70
2023-05-19T15:17:13.372Z,32.21
2023-05-19T15:19:39.949Z,32.91
2023-05-19T15:22:06.529Z,33.33
2023-05-19T15:24:32.975Z,33.53
2023-05-19T15:26:59.480Z,33.91
2023-05-19T15:29:25.921Z,34.49
2023-05-19T15:31:52.365Z,34.61
2023-05-19T15:34:18.853Z,34.57
2023-05-19T15:36:45.299Z,35.63
2023-05-19T15:39:11.755Z,35.28
2023-05-19T15:41:38.247Z,35.10
2023-05-19T15:44:04.690Z,35.58
2023-05-19T15:46:31.182Z,35.81
2023-05-19T15:48:57.753Z,35.58
2023-05-19T15:51:24.192Z,35.65
2023-05-19T15:53:50.666Z,36.67
2023-05-19T15:56:17.221Z,36.87
2023-05-19T15:58:43.668Z,36.21
2023-05-19T16:01:10.182Z,36.66
2023-05-19T16:03:36.736Z,36.19
2023-05-19T16:06:03.225Z,35.81
2023-05-19T16:08:29.798Z,36.33
2023-05-19T16:10:56.235Z,36.33
2023-05-19T16:13:23.047Z,36.20
2023-05-19T16:15:49.599Z,36.27
2023-05-19T16:18:16.106Z,36.22
2023-05-19T16:20:42.576Z,36.25
2023-05-19T16:23:09.143Z,36.34
2023-05-19T16:25:35.565Z,36.41
2023-05-19T16:28:01.986Z,36.08
2023-05-19T16:30:28.611Z,36.80
2023-05-19T16:32:55.080Z,37.16
2023-05-19T16:35:21.643Z,37.35
2023-05-19T16:37:48.196Z,37.48
2023-05-19T16:40:14.678Z,38.18
2023-05-19T16:42:41.186Z,38.95
2023-05-19T16:45:07.677Z,39.74
2023-05-19T16:47:34.204Z,40.41
2023-05-19T16:50:00.669Z,40.92
2023-05-19T16:52:27.162Z,42.30
2023-05-19T16:54:53.705Z,42.93
2023-05-19T16:57:20.197Z,43.30
2023-05-19T16:59:46.636Z,44.06
2023-05-19T17:02:13.187Z,44.75
2023-05-19T17:04:39.734Z,45.71
2023-05-19T17:07:06.191Z,45.97
2023-05-19T17:09:32.729Z,46.13
2023-05-19T17:11:59.208Z,46.88
2023-05-19T17:14:25.654Z,46.88
2023-05-19T17:16:52.164Z,46.67
2023-05-19T17:19:18.687Z,47.25
2023-05-19T17:21:45.126Z,46.50
2023-05-19T17:24:11.553Z,47.21
2023-05-19T17:26:38.022Z,48.03
2023-05-19T17:29:04.476Z,47.41
2023-05-19T17:31:30.865Z,47.36
2023-05-19T17:33:57.356Z,47.52
2023-05-19T17:36:23.810Z,48.46
2023-05-19T17:38:50.320Z,48.67
2023-05-19T17:41:16.759Z,48.47
2023-05-19T17:43:43.213Z,49.35
2023-05-19T17:46:09.738Z,49.17
2023-05-19T17:48:36.315Z,50.21
2023-05-19T17:51:05.731Z,49.94
2023-05-19T17:53:32.380Z,50.04
2023-05-19T17:55:58.854Z,49.86
2023-05-19T17:58:25.334Z,49.96
2023-05-19T18:00:51.788Z,49.31
2023-05-19T18:03:18.407Z,49.36
2023-05-19T18:05:45.018Z,51.07
2023-05-19T18:08:11.621Z,51.67
2023-05-19T18:10:38.102Z,51.45
2023-05-19T18:13:04.575Z,52.29
2023-05-19T18:15:31.087Z,51.99
2023-05-19T18:17:57.573Z,51.89
2023-05-19T18:20:24.052Z,51.56
2023-05-19T18:22:50.472Z,51.16
2023-05-19T18:25:16.903Z,51.31
2023-05-19T18:27:43.316Z,50.85
2023-05-19T18:30:09.739Z,49.76
2023-05-19T18:32:36.232Z,50.59
2023-05-19T18:35:02.731Z,50.67
2023-05-19T18:37:29.385Z,50.29
2023-05-19T18:39:55.906Z,51.00
2023-05-19T18:42:22.354Z,50.83
2023-05-19T18:44:48.823Z,49.90
2023-05-19T18:47:15.355Z,50.55
2023-05-19T18:49:41.861Z,50.24
2023-05-19T18:52:08.310Z,51.05
2023-05-19T18:54:34.799Z,51.13
2023-05-19T18:57:01.224Z,51.08
2023-05-19T18:59:27.749Z,50.85
2023-05-19T19:01:54.247Z,52.29
2023-05-19T19:04:20.795Z,52.26
2023-05-19T19:06:47.269Z,52.39
2023-05-19T19:09:13.746Z,53.37
2023-05-19T19:11:40.220Z,53.24
2023-05-19T19:14:06.854Z,53.81
2023-05-19T19:16:33.448Z,54.99
2023-05-19T19:19:00.014Z,54.70
2023-05-19T19:21:26.682Z,55.33
2023-05-19T19:23:53.102Z,55.83
2023-05-19T19:26:19.539Z,55.54
2023-05-19T19:28:46.205Z,55.70
2023-05-19T19:31:12.652Z,55.71
2023-05-19T19:33:39.163Z,55.30
2023-05-19T19:36:05.616Z,55.30
2023-05-19T19:38:32.070Z,55.82
2023-05-19T19:40:58.583Z,56.09
2023-05-19T19:43:25.202Z,55.66
2023-05-19T19:45:51.614Z,54.46
2023-05-19T19:48:18.117Z,54.52
2023-05-19T19:50:44.570Z,54.22
2023-05-19T19:53:11.278Z,53.66
2023-05-19T19:55:37.931Z,54.47
2023-05-19T19:58:04.374Z,53.02
2023-05-19T20:00:30.943Z,52.97
2023-05-19T20:03:05.152Z,52.53
2023-05-19T20:05:32.182Z,51.96
2023-05-19T20:07:58.645Z,51.49
2023-05-19T20:10:25.166Z,52.63
2023-05-19T20:12:51.897Z,52.12
2023-05-19T20:15:18.481Z,52.63
2023-05-19T20:17:44.964Z,52.35
2023-05-19T20:20:11.445Z,52.61
2023-05-19T20:22:37.912Z,52.66
2023-05-19T20:25:04.407Z,51.91
2023-05-19T20:27:30.823Z,51.65
2023-05-19T20:29:57.332Z,51.51
2023-05-19T20:32:23.834Z,51.96
2023-05-19T20:34:50.328Z,51.66
2023-05-19T20:37:16.792Z,51.77
2023-05-19T20:39:43.355Z,51.97
2023-05-19T20:42:09.752Z,51.89
2023-05-19T20:44:36.235Z,52.19
2023-05-19T20:47:02.670Z,51.18
2023-05-19T20:49:29.090Z,51.91
2023-05-19T20:51:55.548Z,51.90
2023-05-19T20:54:22.079Z,51.85
2023-05-19T20:56:48.681Z,51.64
2023-05-19T20:59:15.135Z,51.17
2023-05-19T21:01:41.623Z,50.99
2023-05-19T21:04:08.263Z,51.65
2023-05-19T21:06:34.915Z,51.68
2023-05-19T21:09:01.391Z,52.60
2023-05-19T21:11:27.808Z,51.19
2023-05-19T21:13:54.284Z,51.92
2023-05-19T21:16:20.777Z,51.61
2023-05-19T21:18:47.727Z,51.90
2023-05-19T21:21:14.343Z,51.69
2023-05-19T21:23:40.836Z,51.46
2023-05-19T21:26:07.469Z,51.82
2023-05-19T21:28:33.976Z,51.51
2023-05-19T21:31:00.452Z,51.51
2023-05-19T21:33:27.065Z,52.15
2023-05-19T21:35:53.519Z,52.61
2023-05-19T21:38:23.943Z,52.26
2023-05-19T21:40:50.832Z,52.00
2023-05-19T21:43:17.295Z,51.51
2023-05-19T21:45:43.755Z,52.03
2023-05-19T21:48:10.246Z,51.95
2023-05-19T21:50:36.821Z,52.14
2023-05-19T21:53:03.263Z,52.15
2023-05-19T21:55:29.814Z,52.41
2023-05-19T21:57:56.338Z,52.57
2023-05-19T22:00:22.825Z,53.20
2023-05-19T22:02:49.398Z,53.00
2023-05-19T22:05:16.099Z,52.57
2023-05-19T22:07:42.528Z,53.16
2023-05-19T22:10:08.938Z,52.83
2023-05-19T22:12:35.341Z,52.39
2023-05-19T22:15:01.775Z,52.34
2023-05-19T22:17:28.231Z,52.49
2023-05-19T22:19:54.720Z,52.40
2023-05-19T22:22:21.132Z,52.72
2023-05-19T22:24:47.656Z,52.58
2023-05-19T22:27:14.282Z,53.18
2023-05-19T22:29:40.709Z,53.70
2023-05-19T22:32:07.159Z,53.65
2023-05-19T22:34:33.668Z,53.88
2023-05-19T22:37:00.129Z,53.50
2023-05-19T22:39:26.570Z,53.80
2023-05-19T22:41:53.042Z,53.39
2023-05-19T22:44:19.566Z,53.71
2023-05-19T22:46:45.991Z,54.16
2023-05-19T22:49:12.429Z,53.72
2023-05-19T22:51:39.050Z,54.84
2023-05-19T22:54:05.504Z,54.87
2023-05-19T22:56:31.944Z,55.50
2023-05-19T22:58:58.407Z,55.04
2023-05-19T23:01:24.947Z,55.11
2023-05-19T23:03:51.500Z,54.75
2023-05-19T23:06:18.012Z,54.61
2023-05-19T23:08:44.872Z,54.94
2023-05-19T23:11:11.950Z,54.83
2023-05-19T23:13:38.421Z,54.38
2023-05-19T23:16:04.825Z,54.62
2023-05-19T23:18:31.231Z,54.64
2023-05-19T23:20:57.674Z,54.31
2023-05-19T23:23:24.195Z,54.45
2023-05-19T23:25:50.652Z,54.62
2023-05-19T23:28:17.093Z,54.57
2023-05-19T23:30:43.534Z,53.88
2023-05-19T23:33:10.106Z,53.90
2023-05-19T23:35:36.722Z,53.72
2023-05-19T23:38:03.232Z,53.19
2023-05-19T23:40:29.715Z,53.56
2023-05-19T23:42:56.285Z,53.21
2023-05-19T23:45:22.855Z,52.77
2023-05-19T23:47:49.357Z,52.55
2023-05-19T23:50:15.828Z,52.99
2023-05-19T23:52:42.244Z,53.14
2023-05-19T23:55:08.810Z,52.58
2023-05-19T23:57:35.233Z,53.18
